sensor_id;sensor_type;location;lat;lon;timestamp;P1;durP1;ratioP1;P2;durP2;ratioP2
12112;SDS011;6120;52.250;8.478;2023-01-15T00:01:03;1.33;;;0.55;;
12112;SDS011;6120;52.250;8.478;2023-01-15T00:03:30;5.07;;;1.00;;
12112;SDS011;6120;52.250;8.478;2023-01-15T00:06:01;7.60;;;1.25;;
12112;SDS011;6120;52.250;8.478;2023-01-15T00:08:28;0.88;;;0.60;;
12112;SDS011;6120;52.250;8.478;2023-01-15T00:10:55;5.72;;;0.90;;
12112;SDS011;6120;52.250;8.478;2023-01-15T00:13:21;2.75;;;0.80;;
12112;SDS011;6120;52.250;8.478;2023-01-15T00:15:48;2.58;;;0.77;;
12112;SDS011;6120;52.250;8.478;2023-01-15T00:18:15;7.72;;;1.05;;
12112;SDS011;6120;52.250;8.478;2023-01-15T00:20:41;4.78;;;0.75;;
12112;SDS011;6120;52.250;8.478;2023-01-15T00:23:08;7.70;;;0.70;;
12112;SDS011;6120;52.250;8.478;2023-01-15T00:25:55;1.75;;;0.47;;
12112;SDS011;6120;52.250;8.478;2023-01-15T00:28:40;1.33;;;0.50;;
12112;SDS011;6120;52.250;8.478;2023-01-15T00:31:07;3.78;;;0.68;;
12112;SDS011;6120;52.250;8.478;2023-01-15T00:33:33;7.75;;;1.38;;
12112;SDS011;6120;52.250;8.478;2023-01-15T00:36:00;1.20;;;0.52;;
12112;SDS011;6120;52.250;8.478;2023-01-15T00:38:26;4.00;;;1.05;;
12112;SDS011;6120;52.250;8.478;2023-01-15T00:40:53;7.05;;;0.85;;
12112;SDS011;6120;52.250;8.478;2023-01-15T00:43:19;1.73;;;0.50;;
12112;SDS011;6120;52.250;8.478;2023-01-15T00:45:46;6.63;;;1.38;;
12112;SDS011;6120;52.250;8.478;2023-01-15T00:48:13;4.05;;;0.60;;
12112;SDS011;6120;52.250;8.478;2023-01-15T00:50:39;4.20;;;1.95;;
12112;SDS011;6120;52.250;8.478;2023-01-15T00:53:06;3.63;;;0.60;;
12112;SDS011;6120;52.250;8.478;2023-01-15T00:55:32;8.18;;;0.68;;
12112;SDS011;6120;52.250;8.478;2023-01-15T00:57:59;3.40;;;0.70;;
12112;SDS011;6120;52.250;8.478;2023-01-15T01:00:26;1.65;;;0.47;;
12112;SDS011;6120;52.250;8.478;2023-01-15T01:02:52;4.03;;;0.68;;
12112;SDS011;6120;52.250;8.478;2023-01-15T01:05:19;4.03;;;0.65;;
12112;SDS011;6120;52.250;8.478;2023-01-15T01:07:45;2.28;;;0.40;;
12112;SDS011;6120;52.250;8.478;2023-01-15T01:10:12;1.30;;;0.52;;
12112;SDS011;6120;52.250;8.478;2023-01-15T01:12:39;2.08;;;0.43;;
12112;SDS011;6120;52.250;8.478;2023-01-15T01:15:06;2.50;;;0.50;;
12112;SDS011;6120;52.250;8.478;2023-01-15T01:17:38;2.72;;;0.50;;
12112;SDS011;6120;52.250;8.478;2023-01-15T01:20:05;0.93;;;0.50;;
12112;SDS011;6120;52.250;8.478;2023-01-15T01:22:32;1.70;;;0.50;;
12112;SDS011;6120;52.250;8.478;2023-01-15T01:24:59;1.27;;;0.43;;
12112;SDS011;6120;52.250;8.478;2023-01-15T01:27:25;1.88;;;0.68;;
12112;SDS011;6120;52.250;8.478;2023-01-15T01:29:52;1.83;;;0.55;;
12112;SDS011;6120;52.250;8.478;2023-01-15T01:32:18;2.40;;;0.80;;
12112;SDS011;6120;52.250;8.478;2023-01-15T01:34:45;1.85;;;0.40;;
12112;SDS011;6120;52.250;8.478;2023-01-15T01:37:11;1.58;;;0.40;;
12112;SDS011;6120;52.250;8.478;2023-01-15T01:39:38;1.80;;;0.50;;
12112;SDS011;6120;52.250;8.478;2023-01-15T01:42:12;0.98;;;0.35;;
12112;SDS011;6120;52.250;8.478;2023-01-15T01:47:11;1.35;;;0.47;;
12112;SDS011;6120;52.250;8.478;2023-01-15T01:49:41;5.53;;;0.68;;
12112;SDS011;6120;52.250;8.478;2023-01-15T01:52:16;0.80;;;0.35;;
12112;SDS011;6120;52.250;8.478;2023-01-15T01:54:46;1.08;;;0.60;;
12112;SDS011;6120;52.250;8.478;2023-01-15T01:57:13;4.80;;;0.60;;
12112;SDS011;6120;52.250;8.478;2023-01-15T01:59:41;0.90;;;0.50;;
12112;SDS011;6120;52.250;8.478;2023-01-15T02:02:08;2.40;;;0.40;;
12112;SDS011;6120;52.250;8.478;2023-01-15T02:04:35;2.22;;;0.65;;
12112;SDS011;6120;52.250;8.478;2023-01-15T02:07:02;1.77;;;0.90;;
12112;SDS011;6120;52.250;8.478;2023-01-15T02:09:29;1.42;;;0.52;;
12112;SDS011;6120;52.250;8.478;2023-01-15T02:11:57;1.95;;;0.60;;
12112;SDS011;6120;52.250;8.478;2023-01-15T02:33:57;5.00;;;1.13;;
12112;SDS011;6120;52.250;8.478;2023-01-15T02:36:29;3.65;;;0.57;;
12112;SDS011;6120;52.250;8.478;2023-01-15T02:39:00;3.70;;;0.80;;
12112;SDS011;6120;52.250;8.478;2023-01-15T02:41:30;3.22;;;0.60;;
12112;SDS011;6120;52.250;8.478;2023-01-15T02:44:02;2.28;;;0.60;;
12112;SDS011;6120;52.250;8.478;2023-01-15T02:48:58;2.92;;;0.85;;
12112;SDS011;6120;52.250;8.478;2023-01-15T02:51:27;4.38;;;0.82;;
12112;SDS011;6120;52.250;8.478;2023-01-15T02:53:57;2.42;;;0.80;;
12112;SDS011;6120;52.250;8.478;2023-01-15T02:56:27;4.10;;;0.77;;
12112;SDS011;6120;52.250;8.478;2023-01-15T02:58:56;2.95;;;0.80;;
12112;SDS011;6120;52.250;8.478;2023-01-15T03:01:28;4.70;;;0.73;;
12112;SDS011;6120;52.250;8.478;2023-01-15T03:06:40;2.58;;;0.60;;
12112;SDS011;6120;52.250;8.478;2023-01-15T03:09:11;3.95;;;0.73;;
12112;SDS011;6120;52.250;8.478;2023-01-15T03:14:18;3.40;;;0.80;;
12112;SDS011;6120;52.250;8.478;2023-01-15T03:16:49;2.20;;;1.00;;
12112;SDS011;6120;52.250;8.478;2023-01-15T03:19:26;6.82;;;1.40;;
12112;SDS011;6120;52.250;8.478;2023-01-15T03:21:58;7.30;;;1.35;;
12112;SDS011;6120;52.250;8.478;2023-01-15T03:26:59;2.75;;;1.27;;
12112;SDS011;6120;52.250;8.478;2023-01-15T03:29:27;8.70;;;2.00;;
12112;SDS011;6120;52.250;8.478;2023-01-15T03:31:57;8.02;;;2.00;;
12112;SDS011;6120;52.250;8.478;2023-01-15T03:34:25;4.13;;;2.05;;
12112;SDS011;6120;52.250;8.478;2023-01-15T03:36:59;6.75;;;1.85;;
12112;SDS011;6120;52.250;8.478;2023-01-15T03:39:25;6.65;;;1.70;;
12112;SDS011;6120;52.250;8.478;2023-01-15T03:47:28;5.95;;;1.83;;
12112;SDS011;6120;52.250;8.478;2023-01-15T03:52:33;5.78;;;1.70;;
12112;SDS011;6120;52.250;8.478;2023-01-15T03:57:58;6.53;;;2.67;;
12112;SDS011;6120;52.250;8.478;2023-01-15T04:00:27;7.78;;;1.98;;
12112;SDS011;6120;52.250;8.478;2023-01-15T04:03:15;5.60;;;1.55;;
12112;SDS011;6120;52.250;8.478;2023-01-15T04:05:43;4.88;;;1.42;;
12112;SDS011;6120;52.250;8.478;2023-01-15T04:08:10;10.60;;;2.00;;
12112;SDS011;6120;52.250;8.478;2023-01-15T04:10:48;10.10;;;2.20;;
12112;SDS011;6120;52.250;8.478;2023-01-15T04:15:42;4.60;;;2.00;;
12112;SDS011;6120;52.250;8.478;2023-01-15T04:18:09;5.53;;;1.73;;
12112;SDS011;6120;52.250;8.478;2023-01-15T04:20:36;5.20;;;1.77;;
12112;SDS011;6120;52.250;8.478;2023-01-15T04:23:02;6.47;;;1.70;;
12112;SDS011;6120;52.250;8.478;2023-01-15T04:25:29;4.07;;;1.25;;
12112;SDS011;6120;52.250;8.478;2023-01-15T04:27:55;8.38;;;2.20;;
12112;SDS011;6120;52.250;8.478;2023-01-15T04:30:22;4.97;;;1.38;;
12112;SDS011;6120;52.250;8.478;2023-01-15T04:32:49;4.15;;;1.13;;
12112;SDS011;6120;52.250;8.478;2023-01-15T04:35:17;7.65;;;1.27;;
12112;SDS011;6120;52.250;8.478;2023-01-15T04:37:45;7.05;;;1.13;;
12112;SDS011;6120;52.250;8.478;2023-01-15T04:40:12;4.45;;;1.27;;
12112;SDS011;6120;52.250;8.478;2023-01-15T04:42:59;8.02;;;1.30;;
12112;SDS011;6120;52.250;8.478;2023-01-15T04:45:44;13.85;;;1.27;;
12112;SDS011;6120;52.250;8.478;2023-01-15T04:48:11;7.57;;;1.52;;
12112;SDS011;6120;52.250;8.478;2023-01-15T04:50:38;7.10;;;1.90;;
12112;SDS011;6120;52.250;8.478;2023-01-15T04:53:05;8.75;;;1.20;;
12112;SDS011;6120;52.250;8.478;2023-01-15T04:55:32;5.20;;;1.30;;
12112;SDS011;6120;52.250;8.478;2023-01-15T04:57:59;5.45;;;1.60;;
12112;SDS011;6120;52.250;8.478;2023-01-15T05:00:25;3.63;;;1.02;;
12112;SDS011;6120;52.250;8.478;2023-01-15T05:02:52;11.68;;;1.75;;
12112;SDS011;6120;52.250;8.478;2023-01-15T05:05:18;4.65;;;1.27;;
12112;SDS011;6120;52.250;8.478;2023-01-15T05:07:45;5.45;;;1.13;;
12112;SDS011;6120;52.250;8.478;2023-01-15T05:10:11;4.22;;;1.17;;
12112;SDS011;6120;52.250;8.478;2023-01-15T05:12:38;5.18;;;1.27;;
12112;SDS011;6120;52.250;8.478;2023-01-15T05:15:05;7.50;;;1.52;;
12112;SDS011;6120;52.250;8.478;2023-01-15T05:17:32;4.10;;;1.10;;
12112;SDS011;6120;52.250;8.478;2023-01-15T05:19:59;4.47;;;1.25;;
12112;SDS011;6120;52.250;8.478;2023-01-15T05:22:25;7.15;;;1.52;;
12112;SDS011;6120;52.250;8.478;2023-01-15T05:24:52;2.97;;;1.02;;
12112;SDS011;6120;52.250;8.478;2023-01-15T05:27:18;7.85;;;1.20;;
12112;SDS011;6120;52.250;8.478;2023-01-15T05:29:45;6.28;;;1.30;;
12112;SDS011;6120;52.250;8.478;2023-01-15T05:32:13;6.70;;;1.30;;
12112;SDS011;6120;52.250;8.478;2023-01-15T05:34:39;7.30;;;1.10;;
12112;SDS011;6120;52.250;8.478;2023-01-15T05:37:06;7.88;;;1.30;;
12112;SDS011;6120;52.250;8.478;2023-01-15T05:39:32;8.15;;;1.83;;
12112;SDS011;6120;52.250;8.478;2023-01-15T05:41:59;5.13;;;1.30;;
12112;SDS011;6120;52.250;8.478;2023-01-15T05:44:27;12.27;;;1.48;;
12112;SDS011;6120;52.250;8.478;2023-01-15T05:46:56;10.80;;;1.10;;
12112;SDS011;6120;52.250;8.478;2023-01-15T05:49:25;6.88;;;1.20;;
12112;SDS011;6120;52.250;8.478;2023-01-15T05:51:52;6.25;;;1.50;;
12112;SDS011;6120;52.250;8.478;2023-01-15T05:54:21;4.17;;;1.13;;
12112;SDS011;6120;52.250;8.478;2023-01-15T05:56:49;7.35;;;1.05;;
12112;SDS011;6120;52.250;8.478;2023-01-15T05:59:18;4.75;;;1.25;;
12112;SDS011;6120;52.250;8.478;2023-01-15T06:01:46;10.30;;;1.15;;
12112;SDS011;6120;52.250;8.478;2023-01-15T06:04:13;7.10;;;1.42;;
12112;SDS011;6120;52.250;8.478;2023-01-15T06:06:40;8.13;;;1.60;;
12112;SDS011;6120;52.250;8.478;2023-01-15T06:09:08;4.03;;;1.33;;
12112;SDS011;6120;52.250;8.478;2023-01-15T06:11:35;6.28;;;1.10;;
12112;SDS011;6120;52.250;8.478;2023-01-15T06:14:01;7.03;;;1.65;;
12112;SDS011;6120;52.250;8.478;2023-01-15T06:16:28;7.15;;;1.30;;
12112;SDS011;6120;52.250;8.478;2023-01-15T06:18:58;5.07;;;1.08;;
12112;SDS011;6120;52.250;8.478;2023-01-15T06:21:25;7.60;;;1.52;;
12112;SDS011;6120;52.250;8.478;2023-01-15T06:23:52;11.82;;;2.10;;
12112;SDS011;6120;52.250;8.478;2023-01-15T06:26:19;6.35;;;1.33;;
12112;SDS011;6120;52.250;8.478;2023-01-15T06:28:46;8.55;;;1.30;;
12112;SDS011;6120;52.250;8.478;2023-01-15T06:31:13;6.63;;;1.42;;
12112;SDS011;6120;52.250;8.478;2023-01-15T06:33:42;5.35;;;1.27;;
12112;SDS011;6120;52.250;8.478;2023-01-15T06:36:10;5.70;;;1.10;;
12112;SDS011;6120;52.250;8.478;2023-01-15T06:38:38;7.13;;;1.60;;
12112;SDS011;6120;52.250;8.478;2023-01-15T06:41:06;6.32;;;1.27;;
12112;SDS011;6120;52.250;8.478;2023-01-15T06:43:52;6.03;;;1.50;;
12112;SDS011;6120;52.250;8.478;2023-01-15T06:46:48;7.82;;;1.83;;
12112;SDS011;6120;52.250;8.478;2023-01-15T06:49:35;8.60;;;1.50;;
12112;SDS011;6120;52.250;8.478;2023-01-15T06:52:02;6.70;;;1.50;;
12112;SDS011;6120;52.250;8.478;2023-01-15T06:54:29;10.87;;;1.90;;
12112;SDS011;6120;52.250;8.478;2023-01-15T06:56:56;9.18;;;1.75;;
12112;SDS011;6120;52.250;8.478;2023-01-15T06:59:23;7.05;;;2.03;;
12112;SDS011;6120;52.250;8.478;2023-01-15T07:01:49;8.85;;;1.52;;
12112;SDS011;6120;52.250;8.478;2023-01-15T07:04:16;10.27;;;1.65;;
12112;SDS011;6120;52.250;8.478;2023-01-15T07:06:43;7.35;;;1.70;;
12112;SDS011;6120;52.250;8.478;2023-01-15T07:09:09;9.65;;;1.67;;
12112;SDS011;6120;52.250;8.478;2023-01-15T07:11:36;5.22;;;1.92;;
12112;SDS011;6120;52.250;8.478;2023-01-15T07:16:59;6.68;;;1.30;;
12112;SDS011;6120;52.250;8.478;2023-01-15T07:19:26;7.80;;;1.60;;
12112;SDS011;6120;52.250;8.478;2023-01-15T07:21:53;7.13;;;1.60;;
12112;SDS011;6120;52.250;8.478;2023-01-15T07:24:20;8.00;;;1.67;;
12112;SDS011;6120;52.250;8.478;2023-01-15T07:26:46;4.30;;;1.33;;
12112;SDS011;6120;52.250;8.478;2023-01-15T07:29:13;12.55;;;2.08;;
12112;SDS011;6120;52.250;8.478;2023-01-15T07:31:40;8.02;;;1.45;;
12112;SDS011;6120;52.250;8.478;2023-01-15T07:34:08;6.00;;;1.80;;
12112;SDS011;6120;52.250;8.478;2023-01-15T07:36:35;6.10;;;1.42;;
12112;SDS011;6120;52.250;8.478;2023-01-15T07:39:03;9.55;;;1.90;;
12112;SDS011;6120;52.250;8.478;2023-01-15T07:44:16;11.30;;;1.65;;
12112;SDS011;6120;52.250;8.478;2023-01-15T07:47:01;7.10;;;1.88;;
12112;SDS011;6120;52.250;8.478;2023-01-15T07:49:48;11.13;;;1.80;;
12112;SDS011;6120;52.250;8.478;2023-01-15T07:52:17;15.53;;;2.00;;
12112;SDS011;6120;52.250;8.478;2023-01-15T07:54:45;7.55;;;1.80;;
12112;SDS011;6120;52.250;8.478;2023-01-15T07:57:13;10.32;;;2.60;;
12112;SDS011;6120;52.250;8.478;2023-01-15T07:59:42;9.70;;;2.15;;
12112;SDS011;6120;52.250;8.478;2023-01-15T08:02:08;7.55;;;1.60;;
12112;SDS011;6120;52.250;8.478;2023-01-15T08:04:35;5.40;;;1.52;;
12112;SDS011;6120;52.250;8.478;2023-01-15T08:07:02;8.05;;;2.00;;
12112;SDS011;6120;52.250;8.478;2023-01-15T08:09:29;9.98;;;2.10;;
12112;SDS011;6120;52.250;8.478;2023-01-15T08:11:59;11.50;;;2.10;;
12112;SDS011;6120;52.250;8.478;2023-01-15T08:14:44;7.32;;;2.05;;
12112;SDS011;6120;52.250;8.478;2023-01-15T08:17:32;7.70;;;1.92;;
12112;SDS011;6120;52.250;8.478;2023-01-15T08:20:00;9.20;;;1.58;;
12112;SDS011;6120;52.250;8.478;2023-01-15T08:22:28;10.77;;;1.88;;
12112;SDS011;6120;52.250;8.478;2023-01-15T08:24:55;6.05;;;1.70;;
12112;SDS011;6120;52.250;8.478;2023-01-15T08:27:21;6.57;;;1.70;;
12112;SDS011;6120;52.250;8.478;2023-01-15T08:29:48;9.02;;;2.08;;
12112;SDS011;6120;52.250;8.478;2023-01-15T08:32:15;5.38;;;1.67;;
12112;SDS011;6120;52.250;8.478;2023-01-15T08:34:41;11.10;;;1.90;;
12112;SDS011;6120;52.250;8.478;2023-01-15T08:37:08;4.63;;;1.58;;
12112;SDS011;6120;52.250;8.478;2023-01-15T08:39:35;10.27;;;1.90;;
12112;SDS011;6120;52.250;8.478;2023-01-15T08:42:01;8.80;;;1.92;;
12112;SDS011;6120;52.250;8.478;2023-01-15T08:44:28;12.07;;;1.80;;
12112;SDS011;6120;52.250;8.478;2023-01-15T08:46:55;10.00;;;1.40;;
12112;SDS011;6120;52.250;8.478;2023-01-15T08:49:21;7.60;;;1.60;;
12112;SDS011;6120;52.250;8.478;2023-01-15T08:51:48;9.93;;;2.13;;
12112;SDS011;6120;52.250;8.478;2023-01-15T08:54:18;8.15;;;1.80;;
12112;SDS011;6120;52.250;8.478;2023-01-15T08:56:45;9.73;;;1.73;;
12112;SDS011;6120;52.250;8.478;2023-01-15T08:59:12;5.57;;;1.30;;
12112;SDS011;6120;52.250;8.478;2023-01-15T09:01:39;8.23;;;1.75;;
12112;SDS011;6120;52.250;8.478;2023-01-15T09:06:35;5.50;;;1.77;;
12112;SDS011;6120;52.250;8.478;2023-01-15T09:09:01;7.00;;;1.60;;
12112;SDS011;6120;52.250;8.478;2023-01-15T09:11:28;7.70;;;1.23;;
12112;SDS011;6120;52.250;8.478;2023-01-15T09:13:55;8.32;;;1.40;;
12112;SDS011;6120;52.250;8.478;2023-01-15T09:16:22;8.27;;;1.50;;
12112;SDS011;6120;52.250;8.478;2023-01-15T09:18:49;7.55;;;1.50;;
12112;SDS011;6120;52.250;8.478;2023-01-15T09:21:15;6.68;;;1.63;;
12112;SDS011;6120;52.250;8.478;2023-01-15T09:23:42;9.57;;;1.77;;
12112;SDS011;6120;52.250;8.478;2023-01-15T09:29:01;7.43;;;1.20;;
12112;SDS011;6120;52.250;8.478;2023-01-15T09:31:29;4.93;;;1.35;;
12112;SDS011;6120;52.250;8.478;2023-01-15T09:33:56;10.30;;;1.70;;
12112;SDS011;6120;52.250;8.478;2023-01-15T09:36:24;7.43;;;1.40;;
12112;SDS011;6120;52.250;8.478;2023-01-15T09:38:56;10.85;;;1.40;;
12112;SDS011;6120;52.250;8.478;2023-01-15T09:41:24;5.43;;;1.40;;
12112;SDS011;6120;52.250;8.478;2023-01-15T09:47:08;8.75;;;1.85;;
12112;SDS011;6120;52.250;8.478;2023-01-15T09:52:41;5.75;;;1.17;;
12112;SDS011;6120;52.250;8.478;2023-01-15T09:55:27;8.63;;;1.30;;
12112;SDS011;6120;52.250;8.478;2023-01-15T09:57:57;6.53;;;2.10;;
12112;SDS011;6120;52.250;8.478;2023-01-15T10:00:25;7.20;;;1.58;;
12112;SDS011;6120;52.250;8.478;2023-01-15T10:08:31;7.22;;;1.20;;
12112;SDS011;6120;52.250;8.478;2023-01-15T10:11:04;4.60;;;1.58;;
12112;SDS011;6120;52.250;8.478;2023-01-15T10:14:00;6.88;;;1.38;;
12112;SDS011;6120;52.250;8.478;2023-01-15T10:16:30;4.10;;;1.52;;
12112;SDS011;6120;52.250;8.478;2023-01-15T10:21:33;6.30;;;1.10;;
12112;SDS011;6120;52.250;8.478;2023-01-15T10:24:14;6.05;;;1.52;;
12112;SDS011;6120;52.250;8.478;2023-01-15T10:34:31;7.70;;;1.08;;
12112;SDS011;6120;52.250;8.478;2023-01-15T10:37:05;5.20;;;1.48;;
12112;SDS011;6120;52.250;8.478;2023-01-15T10:42:25;3.33;;;1.25;;
12112;SDS011;6120;52.250;8.478;2023-01-15T10:47:28;4.63;;;1.20;;
12112;SDS011;6120;52.250;8.478;2023-01-15T10:50:00;8.63;;;1.40;;
12112;SDS011;6120;52.250;8.478;2023-01-15T10:52:32;6.20;;;1.25;;
12112;SDS011;6120;52.250;8.478;2023-01-15T10:55:16;3.45;;;1.20;;
12112;SDS011;6120;52.250;8.478;2023-01-15T10:57:52;3.70;;;1.10;;
12112;SDS011;6120;52.250;8.478;2023-01-15T11:00:36;6.05;;;1.40;;
12112;SDS011;6120;52.250;8.478;2023-01-15T11:03:04;7.63;;;1.40;;
12112;SDS011;6120;52.250;8.478;2023-01-15T11:05:37;3.58;;;0.93;;
12112;SDS011;6120;52.250;8.478;2023-01-15T11:08:05;5.18;;;1.30;;
12112;SDS011;6120;52.250;8.478;2023-01-15T11:10:56;6.40;;;1.10;;
12112;SDS011;6120;52.250;8.478;2023-01-15T11:13:27;5.05;;;1.20;;
12112;SDS011;6120;52.250;8.478;2023-01-15T11:16:13;5.72;;;1.10;;
12112;SDS011;6120;52.250;8.478;2023-01-15T11:19:03;2.55;;;1.02;;
12112;SDS011;6120;52.250;8.478;2023-01-15T11:21:50;5.75;;;1.10;;
12112;SDS011;6120;52.250;8.478;2023-01-15T11:24:17;6.82;;;1.48;;
12112;SDS011;6120;52.250;8.478;2023-01-15T11:26:46;2.70;;;1.08;;
12112;SDS011;6120;52.250;8.478;2023-01-15T11:29:14;8.85;;;1.40;;
12112;SDS011;6120;52.250;8.478;2023-01-15T11:31:46;8.85;;;1.20;;
12112;SDS011;6120;52.250;8.478;2023-01-15T11:34:20;6.95;;;1.40;;
12112;SDS011;6120;52.250;8.478;2023-01-15T11:36:47;11.27;;;1.20;;
12112;SDS011;6120;52.250;8.478;2023-01-15T11:39:24;8.63;;;1.83;;
12112;SDS011;6120;52.250;8.478;2023-01-15T11:41:59;4.80;;;1.00;;
12112;SDS011;6120;52.250;8.478;2023-01-15T11:44:49;6.22;;;1.30;;
12112;SDS011;6120;52.250;8.478;2023-01-15T11:47:38;7.10;;;1.45;;
12112;SDS011;6120;52.250;8.478;2023-01-15T11:50:23;4.30;;;0.80;;
12112;SDS011;6120;52.250;8.478;2023-01-15T11:53:12;5.50;;;0.93;;
12112;SDS011;6120;52.250;8.478;2023-01-15T11:55:56;3.60;;;0.90;;
12112;SDS011;6120;52.250;8.478;2023-01-15T11:58:28;7.38;;;1.30;;
12112;SDS011;6120;52.250;8.478;2023-01-15T12:00:58;4.18;;;0.98;;
12112;SDS011;6120;52.250;8.478;2023-01-15T12:03:26;6.28;;;0.95;;
12112;SDS011;6120;52.250;8.478;2023-01-15T12:05:57;4.68;;;1.30;;
12112;SDS011;6120;52.250;8.478;2023-01-15T12:14:14;8.45;;;1.25;;
12112;SDS011;6120;52.250;8.478;2023-01-15T12:16:46;5.60;;;1.17;;
12112;SDS011;6120;52.250;8.478;2023-01-15T12:22:07;3.83;;;1.20;;
12112;SDS011;6120;52.250;8.478;2023-01-15T12:33:14;7.43;;;1.02;;
12112;SDS011;6120;52.250;8.478;2023-01-15T12:36:02;4.97;;;1.08;;
12112;SDS011;6120;52.250;8.478;2023-01-15T12:41:13;7.72;;;1.17;;
12112;SDS011;6120;52.250;8.478;2023-01-15T12:43:43;5.85;;;1.10;;
12112;SDS011;6120;52.250;8.478;2023-01-15T12:51:41;4.53;;;1.48;;
12112;SDS011;6120;52.250;8.478;2023-01-15T12:54:13;10.07;;;1.05;;
12112;SDS011;6120;52.250;8.478;2023-01-15T12:56:44;6.82;;;1.20;;
12112;SDS011;6120;52.250;8.478;2023-01-15T13:01:58;7.07;;;1.40;;
12112;SDS011;6120;52.250;8.478;2023-01-15T13:07:30;6.32;;;1.15;;
12112;SDS011;6120;52.250;8.478;2023-01-15T13:12:47;11.88;;;2.20;;
12112;SDS011;6120;52.250;8.478;2023-01-15T13:15:15;8.07;;;1.00;;
12112;SDS011;6120;52.250;8.478;2023-01-15T13:18:01;6.45;;;1.63;;
12112;SDS011;6120;52.250;8.478;2023-01-15T13:20:39;8.02;;;2.17;;
12112;SDS011;6120;52.250;8.478;2023-01-15T13:28:24;9.75;;;1.40;;
12112;SDS011;6120;52.250;8.478;2023-01-15T13:31:22;5.55;;;1.40;;
12112;SDS011;6120;52.250;8.478;2023-01-15T13:37:19;5.80;;;1.17;;
12112;SDS011;6120;52.250;8.478;2023-01-15T13:39:54;3.92;;;1.20;;
12112;SDS011;6120;52.250;8.478;2023-01-15T13:42:24;6.72;;;1.63;;
12112;SDS011;6120;52.250;8.478;2023-01-15T13:45:02;5.63;;;1.10;;
12112;SDS011;6120;52.250;8.478;2023-01-15T13:47:33;7.93;;;1.33;;
12112;SDS011;6120;52.250;8.478;2023-01-15T13:50:05;4.28;;;1.05;;
12112;SDS011;6120;52.250;8.478;2023-01-15T13:52:39;6.07;;;1.40;;
12112;SDS011;6120;52.250;8.478;2023-01-15T13:57:46;7.10;;;1.17;;
12112;SDS011;6120;52.250;8.478;2023-01-15T14:03:00;4.72;;;1.25;;
12112;SDS011;6120;52.250;8.478;2023-01-15T14:05:29;5.85;;;1.27;;
12112;SDS011;6120;52.250;8.478;2023-01-15T14:08:00;6.28;;;1.17;;
12112;SDS011;6120;52.250;8.478;2023-01-15T14:21:24;10.65;;;1.00;;
12112;SDS011;6120;52.250;8.478;2023-01-15T14:32:22;5.55;;;1.17;;
12112;SDS011;6120;52.250;8.478;2023-01-15T14:35:09;3.05;;;1.00;;
12112;SDS011;6120;52.250;8.478;2023-01-15T14:42:50;3.63;;;1.00;;
12112;SDS011;6120;52.250;8.478;2023-01-15T14:45:28;3.78;;;0.80;;
12112;SDS011;6120;52.250;8.478;2023-01-15T14:48:04;3.90;;;0.93;;
12112;SDS011;6120;52.250;8.478;2023-01-15T14:50:37;4.60;;;1.08;;
12112;SDS011;6120;52.250;8.478;2023-01-15T14:55:37;6.57;;;1.13;;
12112;SDS011;6120;52.250;8.478;2023-01-15T14:58:13;5.63;;;1.00;;
12112;SDS011;6120;52.250;8.478;2023-01-15T15:00:51;3.83;;;1.05;;
12112;SDS011;6120;52.250;8.478;2023-01-15T15:03:21;3.38;;;0.90;;
12112;SDS011;6120;52.250;8.478;2023-01-15T15:05:59;1.90;;;0.98;;
12112;SDS011;6120;52.250;8.478;2023-01-15T15:08:27;6.88;;;1.33;;
12112;SDS011;6120;52.250;8.478;2023-01-15T15:10:56;7.10;;;1.02;;
12112;SDS011;6120;52.250;8.478;2023-01-15T15:13:33;6.13;;;1.20;;
12112;SDS011;6120;52.250;8.478;2023-01-15T15:16:18;4.22;;;1.50;;
12112;SDS011;6120;52.250;8.478;2023-01-15T15:21:42;4.82;;;1.15;;
12112;SDS011;6120;52.250;8.478;2023-01-15T15:24:15;10.63;;;1.50;;
12112;SDS011;6120;52.250;8.478;2023-01-15T15:26:46;4.45;;;1.20;;
12112;SDS011;6120;52.250;8.478;2023-01-15T15:29:17;6.35;;;1.52;;
12112;SDS011;6120;52.250;8.478;2023-01-15T15:31:46;3.47;;;1.08;;
12112;SDS011;6120;52.250;8.478;2023-01-15T15:34:18;4.20;;;0.93;;
12112;SDS011;6120;52.250;8.478;2023-01-15T15:36:49;3.65;;;1.00;;
12112;SDS011;6120;52.250;8.478;2023-01-15T15:39:22;2.67;;;0.80;;
12112;SDS011;6120;52.250;8.478;2023-01-15T15:41:50;5.38;;;1.30;;
12112;SDS011;6120;52.250;8.478;2023-01-15T15:47:34;4.15;;;1.27;;
12112;SDS011;6120;52.250;8.478;2023-01-15T15:50:22;5.75;;;1.52;;
12112;SDS011;6120;52.250;8.478;2023-01-15T15:52:51;2.33;;;0.90;;
12112;SDS011;6120;52.250;8.478;2023-01-15T15:55:19;3.10;;;0.93;;
12112;SDS011;6120;52.250;8.478;2023-01-15T15:57:48;5.03;;;1.10;;
12112;SDS011;6120;52.250;8.478;2023-01-15T16:00:30;3.92;;;1.33;;
12112;SDS011;6120;52.250;8.478;2023-01-15T16:03:13;7.75;;;1.15;;
12112;SDS011;6120;52.250;8.478;2023-01-15T16:05:53;4.13;;;1.20;;
12112;SDS011;6120;52.250;8.478;2023-01-15T16:08:21;6.53;;;1.30;;
12112;SDS011;6120;52.250;8.478;2023-01-15T16:10:49;8.45;;;1.13;;
12112;SDS011;6120;52.250;8.478;2023-01-15T16:13:27;5.13;;;1.50;;
12112;SDS011;6120;52.250;8.478;2023-01-15T16:15:57;2.83;;;0.95;;
12112;SDS011;6120;52.250;8.478;2023-01-15T16:20:58;4.03;;;1.23;;
12112;SDS011;6120;52.250;8.478;2023-01-15T16:23:26;4.93;;;1.08;;
12112;SDS011;6120;52.250;8.478;2023-01-15T16:26:12;5.53;;;1.10;;
12112;SDS011;6120;52.250;8.478;2023-01-15T16:28:42;2.45;;;0.93;;
12112;SDS011;6120;52.250;8.478;2023-01-15T16:31:12;6.78;;;1.13;;
12112;SDS011;6120;52.250;8.478;2023-01-15T16:33:39;6.40;;;1.30;;
12112;SDS011;6120;52.250;8.478;2023-01-15T16:36:06;3.85;;;1.10;;
12112;SDS011;6120;52.250;8.478;2023-01-15T16:38:45;5.40;;;1.25;;
12112;SDS011;6120;52.250;8.478;2023-01-15T16:41:15;6.30;;;1.20;;
12112;SDS011;6120;52.250;8.478;2023-01-15T16:43:49;4.65;;;1.30;;
12112;SDS011;6120;52.250;8.478;2023-01-15T16:46:18;4.68;;;1.20;;
12112;SDS011;6120;52.250;8.478;2023-01-15T16:48:45;3.93;;;1.10;;
12112;SDS011;6120;52.250;8.478;2023-01-15T16:53:52;3.58;;;1.13;;
12112;SDS011;6120;52.250;8.478;2023-01-15T16:59:04;3.63;;;1.20;;
12112;SDS011;6120;52.250;8.478;2023-01-15T17:01:41;5.30;;;1.95;;
12112;SDS011;6120;52.250;8.478;2023-01-15T17:04:19;6.10;;;1.30;;
12112;SDS011;6120;52.250;8.478;2023-01-15T17:06:59;6.07;;;1.30;;
12112;SDS011;6120;52.250;8.478;2023-01-15T17:09:29;4.13;;;1.35;;
12112;SDS011;6120;52.250;8.478;2023-01-15T17:11:58;3.42;;;1.30;;
12112;SDS011;6120;52.250;8.478;2023-01-15T17:19:44;7.55;;;2.70;;
12112;SDS011;6120;52.250;8.478;2023-01-15T17:22:15;5.28;;;1.10;;
12112;SDS011;6120;52.250;8.478;2023-01-15T17:24:45;4.38;;;1.23;;
12112;SDS011;6120;52.250;8.478;2023-01-15T17:27:15;8.57;;;1.65;;
12112;SDS011;6120;52.250;8.478;2023-01-15T17:29:42;4.40;;;1.40;;
12112;SDS011;6120;52.250;8.478;2023-01-15T17:32:13;4.43;;;1.27;;
12112;SDS011;6120;52.250;8.478;2023-01-15T17:34:42;7.30;;;1.33;;
12112;SDS011;6120;52.250;8.478;2023-01-15T17:37:08;6.13;;;1.48;;
12112;SDS011;6120;52.250;8.478;2023-01-15T17:39:35;4.97;;;1.05;;
12112;SDS011;6120;52.250;8.478;2023-01-15T17:42:04;4.50;;;1.20;;
12112;SDS011;6120;52.250;8.478;2023-01-15T17:44:37;4.57;;;1.65;;
12112;SDS011;6120;52.250;8.478;2023-01-15T17:47:04;4.78;;;1.23;;
12112;SDS011;6120;52.250;8.478;2023-01-15T17:49:31;4.35;;;1.33;;
12112;SDS011;6120;52.250;8.478;2023-01-15T17:51:58;5.85;;;1.63;;
12112;SDS011;6120;52.250;8.478;2023-01-15T17:54:25;3.17;;;0.90;;
12112;SDS011;6120;52.250;8.478;2023-01-15T17:57:10;6.13;;;1.10;;
12112;SDS011;6120;52.250;8.478;2023-01-15T17:59:55;2.72;;;1.08;;
12112;SDS011;6120;52.250;8.478;2023-01-15T18:02:40;3.60;;;1.02;;
12112;SDS011;6120;52.250;8.478;2023-01-15T18:05:26;4.40;;;1.30;;
12112;SDS011;6120;52.250;8.478;2023-01-15T18:07:57;4.70;;;0.90;;
12112;SDS011;6120;52.250;8.478;2023-01-15T18:10:27;5.38;;;1.35;;
12112;SDS011;6120;52.250;8.478;2023-01-15T18:12:53;4.20;;;1.10;;
12112;SDS011;6120;52.250;8.478;2023-01-15T18:15:20;8.00;;;1.05;;
12112;SDS011;6120;52.250;8.478;2023-01-15T18:17:46;2.15;;;1.00;;
12112;SDS011;6120;52.250;8.478;2023-01-15T18:20:13;6.38;;;1.10;;